sensor_id;sensor_type;location;lat;lon;timestamp;temperature;humidity
66271;DHT22;53063;39.614;8.814;2023-03-01T00:01:59;6.10;99.90
66271;DHT22;53063;39.614;8.814;2023-03-01T00:04:25;6.10;99.90
66271;DHT22;53063;39.614;8.814;2023-03-01T00:06:51;6.10;99.90
66271;DHT22;53063;39.614;8.814;2023-03-01T00:09:17;6.00;99.90
66271;DHT22;53063;39.614;8.814;2023-03-01T00:11:44;6.00;99.90
66271;DHT22;53063;39.614;8.814;2023-03-01T00:14:10;6.00;99.90
66271;DHT22;53063;39.614;8.814;2023-03-01T00:16:38;6.00;99.90
66271;DHT22;53063;39.614;8.814;2023-03-01T00:19:05;6.00;99.90
66271;DHT22;53063;39.614;8.814;2023-03-01T00:21:31;5.90;99.90
66271;DHT22;53063;39.614;8.814;2023-03-01T00:23:58;5.90;99.90
66271;DHT22;53063;39.614;8.814;2023-03-01T00:26:25;6.00;99.90
66271;DHT22;53063;39.614;8.814;2023-03-01T00:28:51;6.00;99.90
66271;DHT22;53063;39.614;8.814;2023-03-01T00:31:21;6.00;99.90
66271;DHT22;53063;39.614;8.814;2023-03-01T00:33:47;6.00;99.90
66271;DHT22;53063;39.614;8.814;2023-03-01T00:36:15;6.10;99.90
66271;DHT22;53063;39.614;8.814;2023-03-01T00:38:43;6.10;99.90
66271;DHT22;53063;39.614;8.814;2023-03-01T00:41:14;6.10;99.90
66271;DHT22;53063;39.614;8.814;2023-03-01T00:43:41;6.10;99.90
66271;DHT22;53063;39.614;8.814;2023-03-01T00:46:10;6.10;99.90
66271;DHT22;53063;39.614;8.814;2023-03-01T00:48:37;6.10;99.90
66271;DHT22;53063;39.614;8.814;2023-03-01T00:51:11;6.20;99.90
66271;DHT22;53063;39.614;8.814;2023-03-01T00:53:38;6.30;99.90
66271;DHT22;53063;39.614;8.814;2023-03-01T00:56:05;6.30;99.90
66271;DHT22;53063;39.614;8.814;2023-03-01T00:58:32;6.30;99.90
66271;DHT22;53063;39.614;8.814;2023-03-01T01:00:58;6.30;99.90
66271;DHT22;53063;39.614;8.814;2023-03-01T01:03:24;6.30;99.90
66271;DHT22;53063;39.614;8.814;2023-03-01T01:05:53;6.30;99.90
66271;DHT22;53063;39.614;8.814;2023-03-01T01:08:20;6.30;99.90
66271;DHT22;53063;39.614;8.814;2023-03-01T01:10:46;6.40;99.90
66271;DHT22;53063;39.614;8.814;2023-03-01T01:13:13;6.40;99.90
66271;DHT22;53063;39.614;8.814;2023-03-01T01:15:39;6.50;99.90
66271;DHT22;53063;39.614;8.814;2023-03-01T01:18:06;6.50;99.90
66271;DHT22;53063;39.614;8.814;2023-03-01T01:20:32;6.50;99.90
66271;DHT22;53063;39.614;8.814;2023-03-01T01:22:58;6.50;99.90
66271;DHT22;53063;39.614;8.814;2023-03-01T01:25:24;6.60;99.90
66271;DHT22;53063;39.614;8.814;2023-03-01T01:27:53;6.60;99.90
66271;DHT22;53063;39.614;8.814;2023-03-01T01:30:19;6.60;99.90
66271;DHT22;53063;39.614;8.814;2023-03-01T01:32:45;6.70;99.90
66271;DHT22;53063;39.614;8.814;2023-03-01T01:35:11;6.60;99.90
66271;DHT22;53063;39.614;8.814;2023-03-01T01:37:37;6.70;99.90
66271;DHT22;53063;39.614;8.814;2023-03-01T01:40:03;6.70;99.90
66271;DHT22;53063;39.614;8.814;2023-03-01T01:42:30;6.70;99.90
66271;DHT22;53063;39.614;8.814;2023-03-01T01:45:28;6.70;99.90
66271;DHT22;53063;39.614;8.814;2023-03-01T01:47:59;6.70;99.90
66271;DHT22;53063;39.614;8.814;2023-03-01T01:50:26;6.70;99.90
66271;DHT22;53063;39.614;8.814;2023-03-01T01:52:53;6.70;99.90
66271;DHT22;53063;39.614;8.814;2023-03-01T01:55:26;6.70;99.90
66271;DHT22;53063;39.614;8.814;2023-03-01T01:58:01;6.70;99.90
66271;DHT22;53063;39.614;8.814;2023-03-01T02:00:29;6.70;99.90
66271;DHT22;53063;39.614;8.814;2023-03-01T02:02:57;6.60;99.90
66271;DHT22;53063;39.614;8.814;2023-03-01T02:05:49;6.60;99.90
66271;DHT22;53063;39.614;8.814;2023-03-01T02:08:19;6.60;99.90
66271;DHT22;53063;39.614;8.814;2023-03-01T02:10:46;6.50;99.90
66271;DHT22;53063;39.614;8.814;2023-03-01T02:13:13;6.50;99.90
66271;DHT22;53063;39.614;8.814;2023-03-01T02:15:40;6.50;99.90
66271;DHT22;53063;39.614;8.814;2023-03-01T02:18:07;6.40;99.90
66271;DHT22;53063;39.614;8.814;2023-03-01T02:21:08;6.40;99.90
66271;DHT22;53063;39.614;8.814;2023-03-01T02:23:37;6.40;99.90
66271;DHT22;53063;39.614;8.814;2023-03-01T02:28:58;6.40;99.90
66271;DHT22;53063;39.614;8.814;2023-03-01T02:31:25;6.30;99.90
66271;DHT22;53063;39.614;8.814;2023-03-01T02:34:16;6.30;99.90
66271;DHT22;53063;39.614;8.814;2023-03-01T02:36:52;6.20;99.90
66271;DHT22;53063;39.614;8.814;2023-03-01T02:39:33;6.20;99.90
66271;DHT22;53063;39.614;8.814;2023-03-01T02:42:01;6.20;99.90
66271;DHT22;53063;39.614;8.814;2023-03-01T02:44:28;6.30;99.90
66271;DHT22;53063;39.614;8.814;2023-03-01T02:46:56;6.30;99.90
66271;DHT22;53063;39.614;8.814;2023-03-01T02:49:27;6.30;99.90
66271;DHT22;53063;39.614;8.814;2023-03-01T02:52:30;6.20;99.90
66271;DHT22;53063;39.614;8.814;2023-03-01T02:55:19;6.20;99.90
66271;DHT22;53063;39.614;8.814;2023-03-01T02:57:46;6.20;99.90
66271;DHT22;53063;39.614;8.814;2023-03-01T03:00:26;6.20;99.90
66271;DHT22;53063;39.614;8.814;2023-03-01T03:02:54;6.20;99.90
66271;DHT22;53063;39.614;8.814;2023-03-01T03:05:28;6.20;99.90
66271;DHT22;53063;39.614;8.814;2023-03-01T03:08:00;6.20;99.90
66271;DHT22;53063;39.614;8.814;2023-03-01T03:10:32;6.10;99.90
66271;DHT22;53063;39.614;8.814;2023-03-01T03:13:05;6.10;99.90
66271;DHT22;53063;39.614;8.814;2023-03-01T03:15:32;5.90;99.90
66271;DHT22;53063;39.614;8.814;2023-03-01T03:18:03;5.70;99.90
66271;DHT22;53063;39.614;8.814;2023-03-01T03:20:29;5.60;99.90
66271;DHT22;53063;39.614;8.814;2023-03-01T03:22:56;5.60;99.90
66271;DHT22;53063;39.614;8.814;2023-03-01T03:25:24;5.50;99.90
66271;DHT22;53063;39.614;8.814;2023-03-01T03:27:52;5.40;99.90
66271;DHT22;53063;39.614;8.814;2023-03-01T03:30:30;5.40;99.90
66271;DHT22;53063;39.614;8.814;2023-03-01T03:32:58;5.50;99.90
66271;DHT22;53063;39.614;8.814;2023-03-01T03:35:33;5.60;99.90
66271;DHT22;53063;39.614;8.814;2023-03-01T03:38:03;5.70;99.90
66271;DHT22;53063;39.614;8.814;2023-03-01T03:40:38;6.00;99.90
66271;DHT22;53063;39.614;8.814;2023-03-01T03:43:10;6.20;99.90
66271;DHT22;53063;39.614;8.814;2023-03-01T03:45:36;6.00;99.90
66271;DHT22;53063;39.614;8.814;2023-03-01T03:48:04;6.00;99.90
66271;DHT22;53063;39.614;8.814;2023-03-01T03:50:31;5.90;99.90
66271;DHT22;53063;39.614;8.814;2023-03-01T03:52:57;6.00;99.90
66271;DHT22;53063;39.614;8.814;2023-03-01T03:55:23;5.80;99.90
66271;DHT22;53063;39.614;8.814;2023-03-01T03:57:57;5.70;99.90
66271;DHT22;53063;39.614;8.814;2023-03-01T04:00:24;5.60;99.90
66271;DHT22;53063;39.614;8.814;2023-03-01T04:02:50;5.50;99.90
66271;DHT22;53063;39.614;8.814;2023-03-01T04:05:18;5.40;99.90
66271;DHT22;53063;39.614;8.814;2023-03-01T04:07:45;5.30;99.90
66271;DHT22;53063;39.614;8.814;2023-03-01T04:10:13;5.30;99.90
66271;DHT22;53063;39.614;8.814;2023-03-01T04:12:39;5.40;99.90
66271;DHT22;53063;39.614;8.814;2023-03-01T04:15:07;5.40;99.90
66271;DHT22;53063;39.614;8.814;2023-03-01T04:17:43;5.40;99.90
66271;DHT22;53063;39.614;8.814;2023-03-01T04:20:12;5.30;99.90
66271;DHT22;53063;39.614;8.814;2023-03-01T04:22:39;5.20;99.90
66271;DHT22;53063;39.614;8.814;2023-03-01T04:25:06;5.20;99.90
66271;DHT22;53063;39.614;8.814;2023-03-01T04:27:34;5.20;99.90
66271;DHT22;53063;39.614;8.814;2023-03-01T04:30:00;5.00;99.90
66271;DHT22;53063;39.614;8.814;2023-03-01T04:32:26;5.00;99.90
66271;DHT22;53063;39.614;8.814;2023-03-01T04:34:52;5.00;99.90
66271;DHT22;53063;39.614;8.814;2023-03-01T04:37:18;5.00;99.90
66271;DHT22;53063;39.614;8.814;2023-03-01T04:39:44;5.00;99.90
66271;DHT22;53063;39.614;8.814;2023-03-01T04:42:14;5.00;99.90
66271;DHT22;53063;39.614;8.814;2023-03-01T04:44:40;4.90;99.90
66271;DHT22;53063;39.614;8.814;2023-03-01T04:47:06;4.80;99.90
66271;DHT22;53063;39.614;8.814;2023-03-01T04:49:32;4.80;99.90
66271;DHT22;53063;39.614;8.814;2023-03-01T04:51:58;4.90;99.90
66271;DHT22;53063;39.614;8.814;2023-03-01T04:54:35;4.90;99.90
66271;DHT22;53063;39.614;8.814;2023-03-01T04:57:02;5.10;99.90
66271;DHT22;53063;39.614;8.814;2023-03-01T04:59:29;5.10;99.90
66271;DHT22;53063;39.614;8.814;2023-03-01T05:01:55;5.20;99.90
66271;DHT22;53063;39.614;8.814;2023-03-01T05:04:23;5.20;99.90
66271;DHT22;53063;39.614;8.814;2023-03-01T05:06:49;5.30;99.90
66271;DHT22;53063;39.614;8.814;2023-03-01T05:09:15;5.20;99.90
66271;DHT22;53063;39.614;8.814;2023-03-01T05:11:41;5.40;99.90
66271;DHT22;53063;39.614;8.814;2023-03-01T05:14:08;5.40;99.90
66271;DHT22;53063;39.614;8.814;2023-03-01T05:16:34;5.50;99.90
66271;DHT22;53063;39.614;8.814;2023-03-01T05:19:02;5.80;99.90
66271;DHT22;53063;39.614;8.814;2023-03-01T05:21:38;5.80;99.90
66271;DHT22;53063;39.614;8.814;2023-03-01T05:24:27;5.90;99.90
66271;DHT22;53063;39.614;8.814;2023-03-01T05:26:53;6.00;99.90
66271;DHT22;53063;39.614;8.814;2023-03-01T05:29:24;6.20;99.90
66271;DHT22;53063;39.614;8.814;2023-03-01T05:31:55;6.40;99.90
66271;DHT22;53063;39.614;8.814;2023-03-01T05:34:26;6.60;99.90
66271;DHT22;53063;39.614;8.814;2023-03-01T05:36:52;6.60;99.90
66271;DHT22;53063;39.614;8.814;2023-03-01T05:39:26;6.50;99.90
66271;DHT22;53063;39.614;8.814;2023-03-01T05:41:54;6.40;99.90
66271;DHT22;53063;39.614;8.814;2023-03-01T05:44:20;6.30;99.90
66271;DHT22;53063;39.614;8.814;2023-03-01T05:46:47;6.20;99.90
66271;DHT22;53063;39.614;8.814;2023-03-01T05:49:13;6.00;99.90
66271;DHT22;53063;39.614;8.814;2023-03-01T05:51:43;5.70;99.90
66271;DHT22;53063;39.614;8.814;2023-03-01T05:54:13;5.70;99.90
66271;DHT22;53063;39.614;8.814;2023-03-01T05:56:38;5.60;99.90
66271;DHT22;53063;39.614;8.814;2023-03-01T05:59:05;5.60;99.90
66271;DHT22;53063;39.614;8.814;2023-03-01T06:01:32;5.60;99.90
66271;DHT22;53063;39.614;8.814;2023-03-01T06:03:58;5.50;99.90
66271;DHT22;53063;39.614;8.814;2023-03-01T06:06:24;5.60;99.90
66271;DHT22;53063;39.614;8.814;2023-03-01T06:08:51;5.60;99.90
66271;DHT22;53063;39.614;8.814;2023-03-01T06:11:18;5.60;99.90
66271;DHT22;53063;39.614;8.814;2023-03-01T06:13:44;5.70;99.90
66271;DHT22;53063;39.614;8.814;2023-03-01T06:16:11;5.70;99.90
66271;DHT22;53063;39.614;8.814;2023-03-01T06:18:37;5.80;99.90
66271;DHT22;53063;39.614;8.814;2023-03-01T06:21:05;5.80;99.90
66271;DHT22;53063;39.614;8.814;2023-03-01T06:23:31;5.80;99.90
66271;DHT22;53063;39.614;8.814;2023-03-01T06:25:57;5.80;99.90
66271;DHT22;53063;39.614;8.814;2023-03-01T06:28:23;5.90;99.90
66271;DHT22;53063;39.614;8.814;2023-03-01T06:30:52;6.10;99.90
66271;DHT22;53063;39.614;8.814;2023-03-01T06:33:18;6.10;99.90
66271;DHT22;53063;39.614;8.814;2023-03-01T06:35:48;6.20;99.90
66271;DHT22;53063;39.614;8.814;2023-03-01T06:38:14;6.40;99.90
66271;DHT22;53063;39.614;8.814;2023-03-01T06:40:41;6.50;99.90
66271;DHT22;53063;39.614;8.814;2023-03-01T06:43:07;6.70;99.90
66271;DHT22;53063;39.614;8.814;2023-03-01T06:45:33;6.80;99.90
66271;DHT22;53063;39.614;8.814;2023-03-01T06:48:03;7.00;99.90
66271;DHT22;53063;39.614;8.814;2023-03-01T06:50:30;7.10;99.90
66271;DHT22;53063;39.614;8.814;2023-03-01T06:52:56;7.10;99.90
66271;DHT22;53063;39.614;8.814;2023-03-01T06:55:22;7.10;99.90
66271;DHT22;53063;39.614;8.814;2023-03-01T06:57:48;7.20;99.90
66271;DHT22;53063;39.614;8.814;2023-03-01T07:00:15;7.30;99.90
66271;DHT22;53063;39.614;8.814;2023-03-01T07:02:41;7.40;99.90
66271;DHT22;53063;39.614;8.814;2023-03-01T07:05:07;7.50;99.90
66271;DHT22;53063;39.614;8.814;2023-03-01T07:07:33;7.40;99.90
66271;DHT22;53063;39.614;8.814;2023-03-01T07:09:58;7.40;99.90
66271;DHT22;53063;39.614;8.814;2023-03-01T07:12:24;7.60;99.90
66271;DHT22;53063;39.614;8.814;2023-03-01T07:14:50;7.60;99.90
66271;DHT22;53063;39.614;8.814;2023-03-01T07:17:16;7.60;99.90
66271;DHT22;53063;39.614;8.814;2023-03-01T07:19:42;7.60;99.90
66271;DHT22;53063;39.614;8.814;2023-03-01T07:22:08;7.70;99.90
66271;DHT22;53063;39.614;8.814;2023-03-01T07:24:35;7.80;99.90
66271;DHT22;53063;39.614;8.814;2023-03-01T07:27:01;8.00;99.90
66271;DHT22;53063;39.614;8.814;2023-03-01T07:29:26;8.20;99.90
66271;DHT22;53063;39.614;8.814;2023-03-01T07:31:54;8.60;99.90
66271;DHT22;53063;39.614;8.814;2023-03-01T07:34:20;8.80;99.90
66271;DHT22;53063;39.614;8.814;2023-03-01T07:36:46;9.30;99.90
66271;DHT22;53063;39.614;8.814;2023-03-01T07:39:13;9.70;99.90
66271;DHT22;53063;39.614;8.814;2023-03-01T07:41:38;9.90;99.90
66271;DHT22;53063;39.614;8.814;2023-03-01T07:44:04;10.20;99.90
66271;DHT22;53063;39.614;8.814;2023-03-01T07:46:30;10.20;99.90
66271;DHT22;53063;39.614;8.814;2023-03-01T07:48:56;9.70;99.90
66271;DHT22;53063;39.614;8.814;2023-03-01T07:51:24;9.50;99.90
66271;DHT22;53063;39.614;8.814;2023-03-01T07:53:50;9.50;99.90
66271;DHT22;53063;39.614;8.814;2023-03-01T07:56:16;9.60;99.90
66271;DHT22;53063;39.614;8.814;2023-03-01T07:58:44;9.30;99.90
66271;DHT22;53063;39.614;8.814;2023-03-01T08:01:16;9.00;99.90
66271;DHT22;53063;39.614;8.814;2023-03-01T08:03:42;9.00;99.90
66271;DHT22;53063;39.614;8.814;2023-03-01T08:06:10;8.90;99.90
66271;DHT22;53063;39.614;8.814;2023-03-01T08:08:36;8.80;99.90
66271;DHT22;53063;39.614;8.814;2023-03-01T08:11:04;8.90;99.90
66271;DHT22;53063;39.614;8.814;2023-03-01T08:13:31;8.90;99.90
66271;DHT22;53063;39.614;8.814;2023-03-01T08:16:07;8.90;99.90
66271;DHT22;53063;39.614;8.814;2023-03-01T08:18:34;8.90;99.90
66271;DHT22;53063;39.614;8.814;2023-03-01T08:23:30;9.00;99.90
66271;DHT22;53063;39.614;8.814;2023-03-01T08:26:03;9.00;99.90
66271;DHT22;53063;39.614;8.814;2023-03-01T08:28:29;9.10;99.90
66271;DHT22;53063;39.614;8.814;2023-03-01T08:30:55;9.20;99.90
66271;DHT22;53063;39.614;8.814;2023-03-01T08:33:21;9.40;99.90
66271;DHT22;53063;39.614;8.814;2023-03-01T08:35:47;9.50;99.90
66271;DHT22;53063;39.614;8.814;2023-03-01T08:38:13;9.70;99.90
66271;DHT22;53063;39.614;8.814;2023-03-01T08:40:39;9.80;99.90
66271;DHT22;53063;39.614;8.814;2023-03-01T08:43:05;10.00;99.90
66271;DHT22;53063;39.614;8.814;2023-03-01T08:45:30;10.20;99.90
66271;DHT22;53063;39.614;8.814;2023-03-01T08:47:56;11.20;99.90
66271;DHT22;53063;39.614;8.814;2023-03-01T08:50:23;13.50;99.90
66271;DHT22;53063;39.614;8.814;2023-03-01T08:52:50;14.80;90.50
66271;DHT22;53063;39.614;8.814;2023-03-01T08:55:16;14.80;85.50
66271;DHT22;53063;39.614;8.814;2023-03-01T08:57:43;13.20;85.10
66271;DHT22;53063;39.614;8.814;2023-03-01T09:00:10;12.00;91.10
66271;DHT22;53063;39.614;8.814;2023-03-01T09:02:40;11.30;95.80
66271;DHT22;53063;39.614;8.814;2023-03-01T09:05:06;11.10;99.90
66271;DHT22;53063;39.614;8.814;2023-03-01T09:07:32;11.10;99.90
66271;DHT22;53063;39.614;8.814;2023-03-01T09:09:59;10.80;99.90
66271;DHT22;53063;39.614;8.814;2023-03-01T09:12:24;10.70;99.90
66271;DHT22;53063;39.614;8.814;2023-03-01T09:14:50;10.60;99.90
66271;DHT22;53063;39.614;8.814;2023-03-01T09:17:16;10.70;99.90
66271;DHT22;53063;39.614;8.814;2023-03-01T09:19:42;10.90;99.90
66271;DHT22;53063;39.614;8.814;2023-03-01T09:22:08;11.30;99.90
66271;DHT22;53063;39.614;8.814;2023-03-01T09:24:34;12.30;99.90
66271;DHT22;53063;39.614;8.814;2023-03-01T09:27:00;12.60;98.20
66271;DHT22;53063;39.614;8.814;2023-03-01T09:29:26;13.70;95.30
66271;DHT22;53063;39.614;8.814;2023-03-01T09:31:52;15.80;88.90
66271;DHT22;53063;39.614;8.814;2023-03-01T09:34:21;17.10;75.70
66271;DHT22;53063;39.614;8.814;2023-03-01T09:36:49;18.00;70.80
66271;DHT22;53063;39.614;8.814;2023-03-01T09:39:16;18.50;66.50
66271;DHT22;53063;39.614;8.814;2023-03-01T09:46:45;16.80;70.90
66271;DHT22;53063;39.614;8.814;2023-03-01T09:49:30;16.50;71.50
66271;DHT22;53063;39.614;8.814;2023-03-01T09:51:58;16.30;71.70
66271;DHT22;53063;39.614;8.814;2023-03-01T09:54:25;16.80;71.50
66271;DHT22;53063;39.614;8.814;2023-03-01T09:57:11;16.70;72.90
66271;DHT22;53063;39.614;8.814;2023-03-01T10:02:38;16.80;71.10
66271;DHT22;53063;39.614;8.814;2023-03-01T10:10:38;14.90;78.90
66271;DHT22;53063;39.614;8.814;2023-03-01T10:13:21;15.00;78.60
66271;DHT22;53063;39.614;8.814;2023-03-01T10:15:59;15.10;79.90
66271;DHT22;53063;39.614;8.814;2023-03-01T10:18:30;15.40;75.90
66271;DHT22;53063;39.614;8.814;2023-03-01T10:21:19;14.60;76.80
66271;DHT22;53063;39.614;8.814;2023-03-01T10:23:46;15.30;78.00
66271;DHT22;53063;39.614;8.814;2023-03-01T10:26:48;16.30;75.30
66271;DHT22;53063;39.614;8.814;2023-03-01T10:29:14;16.90;72.80
66271;DHT22;53063;39.614;8.814;2023-03-01T10:31:47;16.70;69.50
66271;DHT22;53063;39.614;8.814;2023-03-01T10:34:21;17.50;68.30
66271;DHT22;53063;39.614;8.814;2023-03-01T10:36:50;17.50;67.30
66271;DHT22;53063;39.614;8.814;2023-03-01T10:39:22;17.60;65.40
66271;DHT22;53063;39.614;8.814;2023-03-01T10:42:04;17.40;64.20
66271;DHT22;53063;39.614;8.814;2023-03-01T10:44:45;17.70;64.50
66271;DHT22;53063;39.614;8.814;2023-03-01T10:50:19;16.80;62.10
66271;DHT22;53063;39.614;8.814;2023-03-01T10:53:00;15.90;64.70
66271;DHT22;53063;39.614;8.814;2023-03-01T10:55:34;15.90;65.40
66271;DHT22;53063;39.614;8.814;2023-03-01T11:00:33;14.00;70.60
66271;DHT22;53063;39.614;8.814;2023-03-01T11:05:26;13.80;73.90
66271;DHT22;53063;39.614;8.814;2023-03-01T11:07:56;13.60;74.30
66271;DHT22;53063;39.614;8.814;2023-03-01T11:10:23;14.20;75.30
66271;DHT22;53063;39.614;8.814;2023-03-01T11:12:51;15.00;75.50
66271;DHT22;53063;39.614;8.814;2023-03-01T11:15:28;15.80;71.10
66271;DHT22;53063;39.614;8.814;2023-03-01T11:17:55;15.00;71.30
66271;DHT22;53063;39.614;8.814;2023-03-01T11:20:29;14.70;74.50
66271;DHT22;53063;39.614;8.814;2023-03-01T11:23:13;13.80;72.90
66271;DHT22;53063;39.614;8.814;2023-03-01T11:25:43;13.10;74.10
66271;DHT22;53063;39.614;8.814;2023-03-01T11:28:17;12.70;76.30
66271;DHT22;53063;39.614;8.814;2023-03-01T11:31:01;12.50;77.80
66271;DHT22;53063;39.614;8.814;2023-03-01T11:33:47;12.60;79.20
66271;DHT22;53063;39.614;8.814;2023-03-01T11:39:09;12.40;78.40
66271;DHT22;53063;39.614;8.814;2023-03-01T11:41:36;12.30;79.20
66271;DHT22;53063;39.614;8.814;2023-03-01T11:44:16;11.90;79.40
66271;DHT22;53063;39.614;8.814;2023-03-01T12:03:47;12.50;77.50
66271;DHT22;53063;39.614;8.814;2023-03-01T12:22:57;13.10;70.60
66271;DHT22;53063;39.614;8.814;2023-03-01T12:30:45;13.80;71.20
66271;DHT22;53063;39.614;8.814;2023-03-01T12:36:24;14.00;70.80
66271;DHT22;53063;39.614;8.814;2023-03-01T12:39:30;14.80;68.60
66271;DHT22;53063;39.614;8.814;2023-03-01T12:50:20;15.10;65.60
66271;DHT22;53063;39.614;8.814;2023-03-01T12:52:51;15.20;66.60
66271;DHT22;53063;39.614;8.814;2023-03-01T12:55:41;14.70;64.70
66271;DHT22;53063;39.614;8.814;2023-03-01T12:58:32;14.90;64.00
66271;DHT22;53063;39.614;8.814;2023-03-01T13:03:55;14.50;64.40
66271;DHT22;53063;39.614;8.814;2023-03-01T13:06:35;14.20;66.70
66271;DHT22;53063;39.614;8.814;2023-03-01T13:09:34;14.30;64.70
66271;DHT22;53063;39.614;8.814;2023-03-01T13:12:02;14.50;65.10
66271;DHT22;53063;39.614;8.814;2023-03-01T13:16:57;15.60;62.10
66271;DHT22;53063;39.614;8.814;2023-03-01T13:19:28;15.80;58.50
66271;DHT22;53063;39.614;8.814;2023-03-01T13:22:31;15.80;58.60
66271;DHT22;53063;39.614;8.814;2023-03-01T13:25:11;15.20;61.00
66271;DHT22;53063;39.614;8.814;2023-03-01T13:27:38;15.20;61.60
66271;DHT22;53063;39.614;8.814;2023-03-01T13:35:57;15.20;59.70
66271;DHT22;53063;39.614;8.814;2023-03-01T13:41:08;16.10;59.10
66271;DHT22;53063;39.614;8.814;2023-03-01T13:43:39;16.00;57.70
66271;DHT22;53063;39.614;8.814;2023-03-01T13:46:32;16.10;60.80
66271;DHT22;53063;39.614;8.814;2023-03-01T13:48:58;16.50;60.60
66271;DHT22;53063;39.614;8.814;2023-03-01T13:51:28;16.20;61.40
66271;DHT22;53063;39.614;8.814;2023-03-01T13:53:55;16.10;58.90
66271;DHT22;53063;39.614;8.814;2023-03-01T13:56:28;15.90;59.80
66271;DHT22;53063;39.614;8.814;2023-03-01T13:59:05;16.00;61.00
66271;DHT22;53063;39.614;8.814;2023-03-01T14:01:32;15.30;62.10
66271;DHT22;53063;39.614;8.814;2023-03-01T14:03:59;15.90;61.40
66271;DHT22;53063;39.614;8.814;2023-03-01T14:06:27;15.90;61.10
66271;DHT22;53063;39.614;8.814;2023-03-01T14:09:17;15.90;59.60
66271;DHT22;53063;39.614;8.814;2023-03-01T14:22:49;15.00;63.80
66271;DHT22;53063;39.614;8.814;2023-03-01T14:25:25;15.40;63.50
66271;DHT22;53063;39.614;8.814;2023-03-01T14:30:46;15.60;64.40
66271;DHT22;53063;39.614;8.814;2023-03-01T14:33:34;15.50;63.40
66271;DHT22;53063;39.614;8.814;2023-03-01T14:38:40;14.10;67.20
66271;DHT22;53063;39.614;8.814;2023-03-01T14:43:44;13.10;70.50
66271;DHT22;53063;39.614;8.814;2023-03-01T14:48:51;12.60;73.20
66271;DHT22;53063;39.614;8.814;2023-03-01T14:51:18;12.50;73.20
66271;DHT22;53063;39.614;8.814;2023-03-01T14:53:44;12.30;74.60
66271;DHT22;53063;39.614;8.814;2023-03-01T14:56:15;12.20;75.30
66271;DHT22;53063;39.614;8.814;2023-03-01T14:58:45;12.20;76.40
66271;DHT22;53063;39.614;8.814;2023-03-01T15:01:15;12.20;76.90
66271;DHT22;53063;39.614;8.814;2023-03-01T15:03:44;12.00;77.20
66271;DHT22;53063;39.614;8.814;2023-03-01T15:09:32;12.10;79.00
66271;DHT22;53063;39.614;8.814;2023-03-01T15:12:00;12.30;80.10
66271;DHT22;53063;39.614;8.814;2023-03-01T15:14:44;12.00;81.60
66271;DHT22;53063;39.614;8.814;2023-03-01T15:17:33;12.20;82.10
66271;DHT22;53063;39.614;8.814;2023-03-01T15:20:02;12.10;80.10
66271;DHT22;53063;39.614;8.814;2023-03-01T15:22:30;11.90;79.40
66271;DHT22;53063;39.614;8.814;2023-03-01T15:24:56;11.80;80.20
66271;DHT22;53063;39.614;8.814;2023-03-01T15:27:25;11.90;80.90
66271;DHT22;53063;39.614;8.814;2023-03-01T15:29:52;12.10;81.30
66271;DHT22;53063;39.614;8.814;2023-03-01T15:34:51;12.00;81.70
66271;DHT22;53063;39.614;8.814;2023-03-01T15:40:26;12.00;83.20
66271;DHT22;53063;39.614;8.814;2023-03-01T15:43:06;12.20;83.50
66271;DHT22;53063;39.614;8.814;2023-03-01T15:45:58;12.30;84.40
66271;DHT22;53063;39.614;8.814;2023-03-01T15:48:24;12.40;83.90
66271;DHT22;53063;39.614;8.814;2023-03-01T15:50:59;12.50;83.80
66271;DHT22;53063;39.614;8.814;2023-03-01T15:53:27;12.40;81.70
66271;DHT22;53063;39.614;8.814;2023-03-01T15:55:53;12.10;80.50
66271;DHT22;53063;39.614;8.814;2023-03-01T15:58:22;12.00;81.30
66271;DHT22;53063;39.614;8.814;2023-03-01T16:00:49;12.10;81.90
66271;DHT22;53063;39.614;8.814;2023-03-01T16:03:22;11.90;79.90
66271;DHT22;53063;39.614;8.814;2023-03-01T16:05:49;11.60;81.60
66271;DHT22;53063;39.614;8.814;2023-03-01T16:08:16;11.40;82.30
66271;DHT22;53063;39.614;8.814;2023-03-01T16:10:43;11.30;83.70
66271;DHT22;53063;39.614;8.814;2023-03-01T16:13:10;11.10;84.70
66271;DHT22;53063;39.614;8.814;2023-03-01T16:15:36;11.10;85.20
66271;DHT22;53063;39.614;8.814;2023-03-01T16:18:03;11.00;86.10
66271;DHT22;53063;39.614;8.814;2023-03-01T16:20:31;10.90;87.10
66271;DHT22;53063;39.614;8.814;2023-03-01T16:23:01;10.90;87.60
66271;DHT22;53063;39.614;8.814;2023-03-01T16:25:29;10.80;88.00
66271;DHT22;53063;39.614;8.814;2023-03-01T16:27:55;10.60;88.60
66271;DHT22;53063;39.614;8.814;2023-03-01T16:30:23;10.60;89.20
66271;DHT22;53063;39.614;8.814;2023-03-01T16:32:50;10.50;89.80
66271;DHT22;53063;39.614;8.814;2023-03-01T16:35:20;10.50;90.40
66271;DHT22;53063;39.614;8.814;2023-03-01T16:37:47;10.50;91.10
66271;DHT22;53063;39.614;8.814;2023-03-01T16:42:44;10.30;92.10
66271;DHT22;53063;39.614;8.814;2023-03-01T16:45:10;10.20;92.70
66271;DHT22;53063;39.614;8.814;2023-03-01T16:47:36;10.10;93.80
66271;DHT22;53063;39.614;8.814;2023-03-01T16:50:04;10.10;94.10
66271;DHT22;53063;39.614;8.814;2023-03-01T16:52:30;10.10;94.40
66271;DHT22;53063;39.614;8.814;2023-03-01T16:54:56;10.20;95.10
66271;DHT22;53063;39.614;8.814;2023-03-01T16:57:22;10.00;95.00
66271;DHT22;53063;39.614;8.814;2023-03-01T16:59:53;10.00;96.20
66271;DHT22;53063;39.614;8.814;2023-03-01T17:02:20;10.10;96.50
66271;DHT22;53063;39.614;8.814;2023-03-01T17:04:53;10.10;96.50
66271;DHT22;53063;39.614;8.814;2023-03-01T17:07:19;10.20;97.10
66271;DHT22;53063;39.614;8.814;2023-03-01T17:09:45;10.20;97.40
66271;DHT22;53063;39.614;8.814;2023-03-01T17:12:15;10.30;97.40
66271;DHT22;53063;39.614;8.814;2023-03-01T17:14:42;10.20;97.20
66271;DHT22;53063;39.614;8.814;2023-03-01T17:17:09;10.30;96.90
66271;DHT22;53063;39.614;8.814;2023-03-01T17:19:35;10.30;97.20
66271;DHT22;53063;39.614;8.814;2023-03-01T17:22:06;10.20;97.20
66271;DHT22;53063;39.614;8.814;2023-03-01T17:24:37;10.40;97.30
66271;DHT22;53063;39.614;8.814;2023-03-01T17:27:04;10.30;96.80
66271;DHT22;53063;39.614;8.814;2023-03-01T17:29:30;10.30;96.90
66271;DHT22;53063;39.614;8.814;2023-03-01T17:31:56;10.30;97.20
66271;DHT22;53063;39.614;8.814;2023-03-01T17:34:23;10.20;97.80
66271;DHT22;53063;39.614;8.814;2023-03-01T17:36:50;10.20;97.90
66271;DHT22;53063;39.614;8.814;2023-03-01T17:39:18;10.10;98.00
66271;DHT22;53063;39.614;8.814;2023-03-01T17:41:51;10.10;98.50
66271;DHT22;53063;39.614;8.814;2023-03-01T17:44:17;10.00;98.90
66271;DHT22;53063;39.614;8.814;2023-03-01T17:46:43;9.90;99.00
66271;DHT22;53063;39.614;8.814;2023-03-01T17:49:09;9.80;99.70
66271;DHT22;53063;39.614;8.814;2023-03-01T17:51:35;9.80;99.90
66271;DHT22;53063;39.614;8.814;2023-03-01T17:54:02;9.80;99.90
66271;DHT22;53063;39.614;8.814;2023-03-01T17:56:27;9.90;99.90
66271;DHT22;53063;39.614;8.814;2023-03-01T17:58:54;9.80;99.90
66271;DHT22;53063;39.614;8.814;2023-03-01T18:01:20;9.90;99.90
66271;DHT22;53063;39.614;8.814;2023-03-01T18:03:52;9.90;99.90